Time;durP1;ratioP1;P1;durP2;ratioP2;P2;SDS_P1;SDS_P2;PMS_P1;PMS_P2;Temp;Humidity;BMP_temperature;BMP_pressure;BME280_temperature;BME280_humidity;BME280_pressure;Samples;Min_cycle;Max_cycle;Signal;HPM_P1;HPM_P2
2022/07/11 00:01:19;;;;;;;2.60;1.57;;;25.10;41.10;;;;;;4985098;28;20226;-44
2022/07/11 00:03:44;;;;;;;1.73;1.60;;;25.00;41.20;;;;;;4978754;28;20612;-44
2022/07/11 00:06:10;;;;;;;2.17;1.77;;;25.00;41.40;;;;;;4978146;28;20204;-45
2022/07/11 00:08:35;;;;;;;1.77;1.50;;;25.00;41.30;;;;;;4976412;28;20198;-44
2022/07/11 00:11:01;;;;;;;5.07;1.80;;;25.00;41.30;;;;;;4983825;28;20840;-44
2022/07/11 00:13:26;;;;;;;2.70;1.60;;;25.00;41.20;;;;;;4985158;28;20203;-44
2022/07/11 00:15:52;;;;;;;3.77;1.60;;;25.00;41.20;;;;;;4982745;28;20197;-44
2022/07/11 00:18:18;;;;;;;2.33;1.87;;;25.00;41.20;;;;;;4986721;28;20194;-44
2022/07/11 00:20:43;;;;;;;1.63;1.53;;;24.90;41.10;;;;;;4989037;28;20226;-43
2022/07/11 00:23:09;;;;;;;2.63;1.93;;;24.90;41.20;;;;;;4983881;28;21120;-44
2022/07/11 00:25:35;;;;;;;4.60;2.60;;;24.80;41.20;;;;;;4988989;28;20195;-43
2022/07/11 00:28:00;;;;;;;2.30;1.70;;;24.70;41.50;;;;;;4979694;28;20191;-43
2022/07/11 00:30:26;;;;;;;2.60;2.10;;;24.50;41.80;;;;;;4987330;28;20684;-43
2022/07/11 00:32:51;;;;;;;2.33;1.70;;;24.40;42.30;;;;;;4975391;28;20199;-43
2022/07/11 00:35:17;;;;;;;5.30;1.80;;;24.30;42.60;;;;;;4983920;28;20202;-43
2022/07/11 00:37:42;;;;;;;4.13;2.20;;;24.20;42.70;;;;;;4985548;28;20261;-43
2022/07/11 00:40:08;;;;;;;2.87;1.87;;;24.10;43.20;;;;;;4990050;28;20610;-44
2022/07/11 00:42:34;;;;;;;2.90;1.93;;;24.00;43.10;;;;;;4984821;28;20285;-43
2022/07/11 00:45:00;;;;;;;1.67;1.50;;;23.80;44.10;;;;;;4989006;28;20528;-43
2022/07/11 00:47:25;;;;;;;2.17;1.77;;;23.70;43.80;;;;;;4986489;28;20195;-42
2022/07/11 00:49:51;;;;;;;2.70;1.70;;;23.70;43.60;;;;;;4975112;28;20273;-43
2022/07/11 00:52:17;;;;;;;2.63;1.70;;;23.80;43.80;;;;;;4987056;28;20198;-43
2022/07/11 00:54:44;;;;;;;1.90;1.33;;;23.70;43.80;;;;;;4979330;28;20909;-43
2022/07/11 00:57:10;;;;;;;5.13;1.73;;;23.70;43.80;;;;;;4971481;28;20270;-43
2022/07/11 00:59:36;;;;;;;2.80;1.73;;;23.70;43.60;;;;;;4981684;28;20568;-43
2022/07/11 01:02:02;;;;;;;2.30;1.50;;;23.60;43.90;;;;;;4988586;28;20274;-42
2022/07/11 01:04:27;;;;;;;1.87;1.40;;;23.60;44.00;;;;;;4987071;28;20222;-44
2022/07/11 01:06:53;;;;;;;2.27;1.60;;;23.60;43.90;;;;;;4984715;28;20199;-43
2022/07/11 01:09:18;;;;;;;3.07;1.70;;;23.60;43.90;;;;;;4980907;28;20329;-43
2022/07/11 01:11:44;;;;;;;2.60;1.67;;;23.60;44.10;;;;;;4988665;28;20201;-43
2022/07/11 01:14:10;;;;;;;1.70;1.60;;;23.50;44.30;;;;;;4985269;28;20222;-43
2022/07/11 01:16:35;;;;;;;5.33;1.60;;;23.50;44.90;;;;;;4986610;28;20195;-43
2022/07/11 01:19:01;;;;;;;4.67;1.53;;;23.40;44.60;;;;;;4982150;28;20187;-43
2022/07/11 01:21:35;;;;;;;1.73;1.40;;;23.50;44.30;;;;;;4988036;28;20218;-43
2022/07/11 01:24:02;;;;;;;3.13;1.57;;;23.50;44.30;;;;;;4982538;28;20209;-43
2022/07/11 01:26:29;;;;;;;2.90;1.80;;;23.50;44.30;;;;;;4986534;28;20457;-43
2022/07/11 01:28:57;;;;;;;2.33;1.50;;;23.40;44.60;;;;;;4983246;28;20446;-43
2022/07/11 01:31:23;;;;;;;1.57;1.47;;;23.40;44.70;;;;;;4984839;28;20919;-43
2022/07/11 01:33:49;;;;;;;2.70;1.90;;;23.30;45.10;;;;;;4983883;28;20537;-43
2022/07/11 01:36:15;;;;;;;3.23;1.87;;;23.30;45.00;;;;;;4987696;28;20433;-43
2022/07/11 01:38:41;;;;;;;3.03;1.57;;;23.30;45.20;;;;;;4987903;28;20489;-43
2022/07/11 01:41:07;;;;;;;2.40;1.43;;;23.30;45.10;;;;;;4990654;28;20260;-44
2022/07/11 01:43:32;;;;;;;2.40;1.80;;;23.40;45.10;;;;;;4987185;28;20206;-43
2022/07/11 01:45:58;;;;;;;2.20;1.43;;;23.40;45.00;;;;;;4984147;28;20677;-43
2022/07/11 01:48:24;;;;;;;3.03;1.63;;;23.30;45.00;;;;;;4983407;28;20198;-43
2022/07/11 01:50:50;;;;;;;3.17;1.90;;;23.30;45.10;;;;;;4987998;28;20218;-43
2022/07/11 01:53:16;;;;;;;2.50;1.73;;;23.20;45.10;;;;;;4988270;28;20194;-42
2022/07/11 01:55:42;;;;;;;2.03;1.83;;;23.20;45.30;;;;;;4987649;28;20249;-43
2022/07/11 01:58:07;;;;;;;1.50;1.40;;;23.20;45.30;;;;;;4984883;28;20209;-43
2022/07/11 02:00:34;;;;;;;2.90;1.70;;;23.20;45.30;;;;;;4982918;28;20841;-44
2022/07/11 02:02:59;;;;;;;1.30;1.20;;;23.20;45.40;;;;;;4982896;28;20566;-43
2022/07/11 02:05:25;;;;;;;2.33;1.90;;;23.20;45.20;;;;;;4983682;28;20442;-43
2022/07/11 02:10:35;;;;;;;1.90;1.40;;;23.20;45.60;;;;;;4971876;28;20237;-43
2022/07/11 02:13:01;;;;;;;3.33;1.50;;;23.10;45.40;;;;;;4985360;28;20819;-44
2022/07/11 02:15:28;;;;;;;5.23;2.23;;;23.10;45.60;;;;;;4986389;28;20194;-43
2022/07/11 02:17:54;;;;;;;2.60;1.80;;;23.00;45.90;;;;;;4984765;28;20528;-42
2022/07/11 02:20:20;;;;;;;1.77;1.60;;;23.10;45.70;;;;;;4988996;28;20513;-44
2022/07/11 02:22:46;;;;;;;3.73;1.60;;;23.10;45.70;;;;;;4988924;28;20205;-43
2022/07/11 02:25:12;;;;;;;3.77;1.70;;;23.10;46.40;;;;;;4983912;28;20450;-43
2022/07/11 02:27:38;;;;;;;2.13;1.93;;;23.10;45.50;;;;;;4987373;28;20593;-43
2022/07/11 02:30:04;;;;;;;30.47;14.50;;;23.10;45.50;;;;;;4989609;28;20230;-43
2022/07/11 02:32:30;;;;;;;10.10;4.73;;;23.20;45.60;;;;;;4990755;28;20879;-43
2022/07/11 02:34:55;;;;;;;4.07;2.50;;;23.20;45.80;;;;;;4987363;28;20530;-43
2022/07/11 02:37:21;;;;;;;4.70;1.90;;;23.20;45.70;;;;;;4989367;28;20202;-43
2022/07/11 02:39:47;;;;;;;2.87;2.03;;;22.80;46.50;;;;;;4981873;28;20222;-43
2022/07/11 02:42:12;;;;;;;4.10;2.23;;;22.30;47.60;;;;;;4992165;28;20288;-43
2022/07/11 02:44:38;;;;;;;1.60;1.40;;;22.40;47.90;;;;;;4988797;28;20976;-43
2022/07/11 02:47:04;;;;;;;2.00;1.80;;;22.50;47.70;;;;;;4989215;28;20296;-43
2022/07/11 02:49:32;;;;;;;2.50;1.73;;;22.60;47.50;;;;;;4986989;28;20580;-43
2022/07/11 02:51:58;;;;;;;2.30;1.80;;;22.70;47.30;;;;;;4980041;28;20302;-43
2022/07/11 02:54:24;;;;;;;3.60;1.87;;;22.80;47.10;;;;;;4988064;28;20476;-43
2022/07/11 02:56:50;;;;;;;2.60;1.60;;;22.80;47.00;;;;;;4989429;28;20554;-43
2022/07/11 02:59:16;;;;;;;3.43;1.60;;;22.90;46.70;;;;;;4981705;28;20234;-43
2022/07/11 03:01:41;;;;;;;2.60;2.13;;;23.00;46.60;;;;;;4978218;28;20492;-43
2022/07/11 03:04:10;;;;;;;4.53;2.00;;;23.00;46.50;;;;;;4988673;28;20240;-43
2022/07/11 03:06:38;;;;;;;3.63;2.03;;;23.00;46.30;;;;;;4986237;28;20198;-43
2022/07/11 03:09:05;;;;;;;2.30;1.60;;;23.00;46.40;;;;;;4990210;28;20473;-43
2022/07/11 03:11:31;;;;;;;3.00;1.87;;;23.00;46.70;;;;;;4988466;28;20492;-42
2022/07/11 03:13:57;;;;;;;2.23;2.03;;;23.00;46.50;;;;;;4985871;28;20442;-46
2022/07/11 03:16:23;;;;;;;3.87;1.90;;;23.10;46.50;;;;;;4990276;28;20449;-44
2022/07/11 03:18:48;;;;;;;1.93;1.80;;;23.20;46.30;;;;;;4977674;28;20199;-43
2022/07/11 03:21:14;;;;;;;2.10;2.00;;;23.20;46.20;;;;;;4989684;28;20686;-43
2022/07/11 03:23:39;;;;;;;3.17;2.03;;;23.00;46.60;;;;;;4988061;28;20281;-43
2022/07/11 03:26:05;;;;;;;3.27;1.90;;;22.90;47.00;;;;;;4978582;28;20778;-43
2022/07/11 03:28:31;;;;;;;5.30;2.20;;;23.00;46.90;;;;;;4988740;28;20203;-43
2022/07/11 03:30:56;;;;;;;1.70;1.60;;;23.00;46.70;;;;;;4974420;28;20227;-43
2022/07/11 03:33:22;;;;;;;3.63;1.73;;;23.10;46.60;;;;;;4981784;28;20187;-42
2022/07/11 03:35:48;;;;;;;2.33;2.13;;;23.10;46.40;;;;;;4983286;28;20291;-43
2022/07/11 03:38:18;;;;;;;4.00;2.10;;;23.20;46.50;;;;;;4985715;28;20254;-43
2022/07/11 03:40:43;;;;;;;2.37;2.17;;;23.20;46.40;;;;;;4990151;28;20198;-43
2022/07/11 03:43:09;;;;;;;2.23;2.00;;;23.20;46.30;;;;;;4992430;28;20440;-43
2022/07/11 03:45:35;;;;;;;2.23;1.97;;;23.20;46.30;;;;;;4989490;28;20253;-43
2022/07/11 03:48:00;;;;;;;2.33;1.77;;;23.20;46.50;;;;;;4987373;28;20233;-43
2022/07/11 03:50:26;;;;;;;3.23;2.20;;;23.20;46.30;;;;;;4981153;28;20222;-44
2022/07/11 03:52:52;;;;;;;2.70;1.60;;;23.20;46.20;;;;;;4971475;28;20669;-43
2022/07/11 03:55:18;;;;;;;2.10;1.90;;;23.20;46.40;;;;;;4975797;28;20199;-43
2022/07/11 03:57:44;;;;;;;2.30;1.50;;;23.10;46.50;;;;;;4982156;28;20470;-43
2022/07/11 04:00:10;;;;;;;2.73;2.53;;;23.10;46.60;;;;;;4979882;28;20517;-44
2022/07/11 04:02:36;;;;;;;2.90;1.83;;;23.00;46.80;;;;;;4981291;28;20249;-43
2022/07/11 04:05:02;;;;;;;4.33;2.10;;;22.50;47.90;;;;;;4972488;28;20441;-43
2022/07/11 04:07:28;;;;;;;2.10;1.90;;;22.40;48.00;;;;;;4988224;28;20573;-43
2022/07/11 04:09:55;;;;;;;4.40;2.27;;;22.50;47.80;;;;;;4983019;28;20559;-43
2022/07/11 04:12:20;;;;;;;7.10;2.57;;;22.60;47.80;;;;;;4987264;28;20464;-43
2022/07/11 04:14:46;;;;;;;2.40;2.10;;;22.70;47.70;;;;;;4987726;28;20447;-44
2022/07/11 04:17:11;;;;;;;3.33;2.30;;;22.70;47.60;;;;;;4981861;28;20198;-43
2022/07/11 04:19:38;;;;;;;4.77;2.23;;;22.80;47.60;;;;;;4986784;28;20207;-44
2022/07/11 04:22:04;;;;;;;4.43;1.97;;;22.70;47.60;;;;;;4988435;28;20658;-43
2022/07/11 04:24:30;;;;;;;2.80;2.00;;;22.80;47.70;;;;;;4982846;28;20528;-44
2022/07/11 04:26:56;;;;;;;2.83;1.87;;;22.80;47.60;;;;;;4981996;28;20438;-43
2022/07/11 04:29:23;;;;;;;2.33;2.03;;;22.80;47.50;;;;;;4978814;28;20561;-43
2022/07/11 04:31:49;;;;;;;2.33;2.13;;;22.80;47.40;;;;;;4983717;28;20466;-43
2022/07/11 04:34:16;;;;;;;2.73;2.20;;;22.80;47.50;;;;;;4983525;28;20450;-43
2022/07/11 04:36:41;;;;;;;5.50;2.53;;;22.80;47.50;;;;;;4980213;28;20477;-43
2022/07/11 04:39:07;;;;;;;9.10;6.57;;;22.70;47.80;;;;;;4980911;28;20877;-43
2022/07/11 04:41:32;;;;;;;5.87;3.40;;;22.70;48.00;;;;;;4982607;28;20196;-43
2022/07/11 04:43:58;;;;;;;3.93;2.37;;;22.60;48.10;;;;;;4984332;28;20191;-43
2022/07/11 04:46:24;;;;;;;3.60;2.13;;;22.50;48.20;;;;;;4984430;28;20226;-43
2022/07/11 04:48:49;;;;;;;3.33;1.77;;;22.60;47.90;;;;;;4987241;28;20191;-43
2022/07/11 04:51:16;;;;;;;2.20;2.00;;;22.70;47.90;;;;;;4988710;28;20308;-43
2022/07/11 04:53:42;;;;;;;2.90;2.20;;;22.70;48.00;;;;;;4985061;28;20198;-43
2022/07/11 04:56:07;;;;;;;1.83;1.73;;;22.50;48.30;;;;;;4984346;28;20968;-43
2022/07/11 04:58:33;;;;;;;2.17;2.00;;;22.20;48.90;;;;;;4980697;28;20200;-42
2022/07/11 05:00:59;;;;;;;1.83;1.73;;;22.00;49.40;;;;;;4982423;28;20243;-43
2022/07/11 05:03:25;;;;;;;1.87;1.77;;;21.90;50.10;;;;;;4985190;28;20981;-42
2022/07/11 05:05:51;;;;;;;3.87;2.17;;;21.90;50.20;;;;;;4983852;28;20198;-42
2022/07/11 05:08:16;;;;;;;2.13;1.67;;;22.00;50.00;;;;;;4978865;28;21074;-42
2022/07/11 05:10:42;;;;;;;2.37;2.03;;;22.20;49.30;;;;;;4983566;28;20231;-44
2022/07/11 05:13:08;;;;;;;3.00;2.53;;;22.50;49.10;;;;;;4980300;28;20752;-43
2022/07/11 05:15:34;;;;;;;4.40;2.73;;;22.60;48.90;;;;;;4987132;28;20732;-42
2022/07/11 05:17:59;;;;;;;3.20;1.73;;;22.70;48.70;;;;;;4982411;28;20222;-43
2022/07/11 05:20:25;;;;;;;4.03;2.00;;;22.80;48.60;;;;;;4984742;28;20270;-42
2022/07/11 05:22:50;;;;;;;2.60;1.70;;;23.10;48.80;;;;;;4986039;28;20194;-43
2022/07/11 05:25:16;;;;;;;5.57;2.20;;;23.20;47.70;;;;;;4979125;28;20199;-42
2022/07/11 05:27:42;;;;;;;3.00;2.10;;;23.40;47.50;;;;;;4974518;28;20198;-43
2022/07/11 05:30:08;;;;;;;2.30;2.10;;;23.50;47.40;;;;;;4986660;28;20328;-44
2022/07/11 05:32:34;;;;;;;2.73;2.07;;;23.70;47.40;;;;;;4978222;28;20202;-43
2022/07/11 05:35:02;;;;;;;6.03;2.07;;;23.80;47.10;;;;;;4986728;28;20640;-43
2022/07/11 05:37:27;;;;;;;2.90;2.30;;;23.90;46.90;;;;;;4985883;28;20328;-43
2022/07/11 05:39:53;;;;;;;4.73;2.77;;;23.90;47.00;;;;;;4980951;28;20545;-43
2022/07/11 05:42:19;;;;;;;7.80;2.53;;;23.90;47.10;;;;;;4983144;28;20513;-44
2022/07/11 05:44:44;;;;;;;3.17;2.90;;;24.00;46.80;;;;;;4986910;28;20278;-43
2022/07/11 05:47:10;;;;;;;2.63;2.40;;;24.00;46.70;;;;;;4976383;28;20195;-43
2022/07/11 05:49:35;;;;;;;3.10;2.57;;;24.10;46.80;;;;;;4989677;28;20193;-44
2022/07/11 05:52:04;;;;;;;2.10;1.90;;;24.10;46.60;;;;;;4991579;28;20209;-44
2022/07/11 05:54:29;;;;;;;3.27;2.60;;;24.20;46.60;;;;;;4990659;28;20252;-43
2022/07/11 05:56:55;;;;;;;4.50;2.30;;;24.20;46.40;;;;;;4981589;28;20996;-43
2022/07/11 05:59:21;;;;;;;2.40;2.20;;;24.30;46.30;;;;;;4991162;28;20202;-43
2022/07/11 06:01:47;;;;;;;4.63;2.90;;;24.30;46.20;;;;;;4982519;28;20241;-43
2022/07/11 06:04:13;;;;;;;2.57;2.37;;;24.30;46.30;;;;;;4991315;28;20568;-43
2022/07/11 06:06:40;;;;;;;1.97;1.77;;;24.40;46.30;;;;;;4991980;28;20464;-43
2022/07/11 06:09:06;;;;;;;3.10;2.73;;;24.50;46.20;;;;;;4991003;28;20452;-44
2022/07/11 06:11:31;;;;;;;5.43;2.80;;;24.60;46.30;;;;;;4991448;28;20907;-43
2022/07/11 06:13:57;;;;;;;2.23;2.10;;;24.60;46.20;;;;;;4992262;28;20446;-43
2022/07/11 06:16:23;;;;;;;3.07;2.53;;;24.70;46.10;;;;;;4990626;28;20249;-44
2022/07/11 06:18:50;;;;;;;2.57;2.30;;;24.70;46.00;;;;;;4988156;28;20657;-44
2022/07/11 06:21:17;;;;;;;2.40;2.20;;;24.80;45.90;;;;;;4988823;28;20203;-43
2022/07/11 06:23:42;;;;;;;2.90;2.30;;;24.80;46.30;;;;;;4987408;28;20453;-43
2022/07/11 06:26:11;;;;;;;2.97;2.13;;;24.90;46.00;;;;;;4989746;28;22360;-44
2022/07/11 06:28:39;;;;;;;3.33;3.03;;;24.90;46.10;;;;;;4985280;28;20202;-45
2022/07/11 06:31:05;;;;;;;6.37;2.93;;;25.00;46.20;;;;;;4980448;28;20543;-44
2022/07/11 06:33:30;;;;;;;4.43;2.50;;;25.00;45.90;;;;;;4984534;28;20921;-44
2022/07/11 06:35:56;;;;;;;3.83;2.60;;;25.10;45.80;;;;;;4990638;28;20453;-44
2022/07/11 06:38:22;;;;;;;2.53;2.27;;;25.10;45.70;;;;;;4992100;28;20206;-44
2022/07/11 06:40:47;;;;;;;3.27;2.43;;;25.20;45.60;;;;;;4994026;28;20194;-44
2022/07/11 06:43:13;;;;;;;3.43;3.07;;;25.20;45.70;;;;;;4982211;28;20249;-44
2022/07/11 06:45:39;;;;;;;2.30;2.10;;;25.20;45.60;;;;;;4976916;28;20202;-44
2022/07/11 06:48:06;;;;;;;2.47;2.30;;;25.20;45.40;;;;;;4988865;28;20203;-44
2022/07/11 06:50:32;;;;;;;2.57;2.37;;;25.30;45.50;;;;;;4977038;28;20481;-45
2022/07/11 06:52:57;;;;;;;2.77;2.50;;;25.40;45.50;;;;;;4984652;28;20790;-44
2022/07/11 06:55:23;;;;;;;3.23;2.87;;;25.50;45.40;;;;;;4993920;28;20449;-43
2022/07/11 06:57:52;;;;;;;3.03;2.70;;;25.50;45.10;;;;;;4985559;28;20273;-44
2022/07/11 07:00:18;;;;;;;4.13;2.80;;;25.60;45.00;;;;;;4983349;28;20646;-44
2022/07/11 07:02:44;;;;;;;2.50;2.30;;;25.60;45.00;;;;;;4984251;28;20540;-44
2022/07/11 07:05:11;;;;;;;3.10;2.43;;;25.60;45.00;;;;;;4980213;28;20202;-43
2022/07/11 07:07:36;;;;;;;4.43;2.33;;;25.60;45.00;;;;;;4991574;28;20439;-44
2022/07/11 07:10:03;;;;;;;4.50;2.50;;;25.60;45.00;;;;;;4976048;28;20466;-44
2022/07/11 07:12:28;;;;;;;3.67;2.67;;;25.60;44.90;;;;;;4987653;28;20209;-45
2022/07/11 07:14:54;;;;;;;3.33;3.03;;;25.60;45.00;;;;;;4985857;28;20921;-43
2022/07/11 07:17:20;;;;;;;4.53;2.90;;;25.70;45.20;;;;;;4985462;28;20203;-44
2022/07/11 07:19:46;;;;;;;3.00;2.80;;;25.70;45.00;;;;;;4979845;28;20187;-44
2022/07/11 07:22:15;;;;;;;3.70;2.80;;;25.80;44.80;;;;;;4978275;28;20266;-44
2022/07/11 07:24:42;;;;;;;3.67;3.10;;;25.90;44.60;;;;;;4980974;28;20202;-44
2022/07/11 07:27:07;;;;;;;3.30;3.00;;;25.90;44.50;;;;;;4982066;28;20997;-44
2022/07/11 07:29:33;;;;;;;3.93;2.60;;;26.00;44.30;;;;;;4990586;28;20556;-44
2022/07/11 07:31:59;;;;;;;3.23;2.97;;;26.10;44.20;;;;;;4993123;28;20199;-44
2022/07/11 07:34:25;;;;;;;2.37;2.17;;;26.20;44.20;;;;;;4988088;28;20326;-44
2022/07/11 07:36:51;;;;;;;2.73;2.50;;;26.30;44.00;;;;;;4990551;28;20457;-41
2022/07/11 07:39:17;;;;;;;3.07;2.87;;;26.40;43.90;;;;;;4989801;28;20453;-44
2022/07/11 07:41:42;;;;;;;3.40;2.73;;;26.40;43.90;;;;;;4989303;28;20693;-44
2022/07/11 07:44:08;;;;;;;5.83;3.00;;;26.30;43.70;;;;;;4978457;28;20293;-44
2022/07/11 07:46:33;;;;;;;6.70;2.83;;;26.20;44.10;;;;;;4990891;28;20191;-45
2022/07/11 07:48:59;;;;;;;2.63;2.50;;;26.10;44.70;;;;;;4985463;28;20194;-44
2022/07/11 07:51:25;;;;;;;3.80;3.30;;;26.30;44.80;;;;;;4991297;28;20313;-46
2022/07/11 07:53:51;;;;;;;2.70;2.23;;;26.30;44.30;;;;;;4988179;28;20681;-44
2022/07/11 07:56:16;;;;;;;3.93;2.80;;;26.40;44.10;;;;;;4987670;28;20206;-44
2022/07/11 07:58:42;;;;;;;3.43;2.83;;;26.50;44.00;;;;;;4980733;28;20209;-45
2022/07/11 08:03:52;;;;;;;4.93;3.23;;;26.70;43.50;;;;;;4978456;28;20666;-45
2022/07/11 08:06:19;;;;;;;2.93;2.70;;;26.80;43.40;;;;;;4987008;28;20573;-46
2022/07/11 08:08:44;;;;;;;4.17;2.93;;;26.80;43.40;;;;;;4981194;28;20443;-45
2022/07/11 08:11:10;;;;;;;2.90;2.50;;;26.80;42.90;;;;;;4979790;28;20485;-46
2022/07/11 08:13:39;;;;;;;3.07;2.40;;;26.90;42.60;;;;;;4986568;28;20195;-44
2022/07/11 08:16:06;;;;;;;5.10;2.30;;;27.00;42.50;;;;;;4992473;28;20190;-45
2022/07/11 08:18:35;;;;;;;2.30;2.10;;;27.10;42.90;;;;;;4981418;28;20471;-45
2022/07/11 08:21:01;;;;;;;2.40;2.20;;;27.20;43.10;;;;;;4976965;28;20812;-42
2022/07/11 08:23:27;;;;;;;3.70;2.77;;;27.10;42.80;;;;;;4980269;28;20446;-44
2022/07/11 08:25:53;;;;;;;3.20;2.90;;;27.00;43.30;;;;;;4987885;28;20519;-43
2022/07/11 08:28:19;;;;;;;3.00;2.20;;;27.00;43.50;;;;;;4986197;28;20198;-42
2022/07/11 08:30:45;;;;;;;2.37;2.07;;;27.20;43.00;;;;;;4987149;28;20945;-42
2022/07/11 08:33:11;;;;;;;2.30;2.10;;;27.40;42.30;;;;;;4987053;28;20273;-43
2022/07/11 08:35:37;;;;;;;2.73;2.47;;;27.60;42.00;;;;;;4990058;28;20214;-43
2022/07/11 08:38:02;;;;;;;2.90;2.00;;;27.80;41.70;;;;;;4983400;28;20482;-42
2022/07/11 08:40:28;;;;;;;2.87;2.60;;;27.90;42.00;;;;;;4987443;28;20245;-42
2022/07/11 08:42:57;;;;;;;2.80;1.90;;;28.00;41.60;;;;;;4977095;28;20203;-46
2022/07/11 08:45:31;;;;;;;2.67;2.00;;;28.10;41.40;;;;;;4991191;28;20201;-42
2022/07/11 08:47:58;;;;;;;2.07;1.97;;;28.30;41.10;;;;;;4982983;28;20459;-45
2022/07/11 08:50:25;;;;;;;2.63;2.23;;;28.40;40.80;;;;;;4989134;28;20540;-43
2022/07/11 08:52:53;;;;;;;3.57;1.93;;;28.40;40.70;;;;;;4983373;28;20449;-43
2022/07/11 08:55:20;;;;;;;2.57;2.37;;;28.50;40.30;;;;;;4990139;28;20480;-46
2022/07/11 08:57:46;;;;;;;3.43;1.70;;;28.50;39.10;;;;;;4986132;28;20484;-43
2022/07/11 09:00:13;;;;;;;3.30;1.97;;;28.50;39.30;;;;;;4987319;28;20475;-44
2022/07/11 09:02:41;;;;;;;2.40;1.80;;;28.60;39.90;;;;;;4986675;28;20443;-45
2022/07/11 09:05:08;;;;;;;1.80;1.70;;;28.60;40.00;;;;;;4989660;28;20447;-42
2022/07/11 09:07:44;;;;;;;1.70;1.60;;;28.70;39.90;;;;;;4985680;28;20454;-43
2022/07/11 09:10:10;;;;;;;2.53;2.00;;;28.50;39.30;;;;;;4971584;28;21008;-42
2022/07/11 09:12:35;;;;;;;1.70;1.60;;;28.60;39.40;;;;;;4975344;28;20965;-45
2022/07/11 09:15:01;;;;;;;1.90;1.80;;;28.80;39.10;;;;;;4983515;28;20453;-42
2022/07/11 09:17:30;;;;;;;2.23;1.43;;;28.80;39.00;;;;;;4987393;28;20191;-45
2022/07/11 09:19:56;;;;;;;2.20;1.73;;;28.90;38.70;;;;;;4987906;28;20615;-43
2022/07/11 09:25:25;;;;;;;1.90;1.80;;;29.10;39.30;;;;;;4991594;28;20241;-46
2022/07/11 09:28:06;;;;;;;1.57;1.47;;;29.10;38.70;;;;;;4978017;28;20450;-44
2022/07/11 09:30:35;;;;;;;1.97;1.70;;;28.80;38.10;;;;;;4971697;28;20873;-43
2022/07/11 09:33:03;;;;;;;1.50;1.40;;;28.70;38.90;;;;;;4985704;28;20525;-43
2022/07/11 09:38:01;;;;;;;2.10;1.90;;;29.00;38.50;;;;;;4945856;28;20488;-44
2022/07/11 09:40:27;;;;;;;1.60;1.50;;;29.00;38.00;;;;;;4950803;28;20436;-43
2022/07/11 09:42:55;;;;;;;1.70;1.60;;;29.10;38.10;;;;;;4949987;28;20462;-44
2022/07/11 09:45:27;;;;;;;1.83;1.73;;;29.30;38.60;;;;;;4947595;28;20204;-44
2022/07/11 09:47:57;;;;;;;2.17;2.00;;;29.50;38.30;;;;;;4950047;28;20439;-45
2022/07/11 09:50:25;;;;;;;2.27;2.10;;;29.60;38.50;;;;;;4951592;28;20495;-44
2022/07/11 09:53:13;;;;;;;2.20;2.00;;;29.70;37.30;;;;;;4950980;28;20444;-45
2022/07/11 09:55:41;;;;;;;1.63;1.53;;;29.80;37.30;;;;;;4953763;28;20937;-44
2022/07/11 09:58:08;;;;;;;1.97;1.60;;;29.80;36.80;;;;;;4949327;28;20942;-44
2022/07/11 10:00:36;;;;;;;1.70;1.60;;;29.80;37.00;;;;;;4946756;28;20451;-44
2022/07/11 10:03:03;;;;;;;1.90;1.77;;;29.80;37.90;;;;;;4952065;28;20530;-45
2022/07/11 10:05:30;;;;;;;3.50;1.30;;;29.90;38.10;;;;;;4950000;28;20527;-45
2022/07/11 10:07:57;;;;;;;1.83;1.73;;;30.00;38.20;;;;;;4950430;28;20491;-45
2022/07/11 10:10:23;;;;;;;1.77;1.67;;;30.10;38.30;;;;;;4949316;28;20916;-45
2022/07/11 10:12:51;;;;;;;1.47;1.37;;;30.20;37.10;;;;;;4943365;28;20444;-45
2022/07/11 10:15:27;;;;;;;1.53;1.43;;;30.20;37.00;;;;;;4946959;28;20459;-46
2022/07/11 10:18:11;;;;;;;1.43;1.33;;;30.30;36.00;;;;;;4949755;28;20479;-44
2022/07/11 10:21:17;;;;;;;2.90;1.70;;;30.40;36.40;;;;;;4950649;29;20775;-45
2022/07/11 10:23:54;;;;;;;2.40;1.50;;;30.30;35.80;;;;;;4906535;29;20460;-44
2022/07/11 10:26:59;;;;;;;1.90;1.80;;;30.20;35.50;;;;;;4904534;29;20885;-44
2022/07/11 10:29:42;;;;;;;1.30;1.20;;;30.20;35.50;;;;;;4936689;28;20494;-44
2022/07/11 10:32:09;;;;;;;1.30;1.30;;;30.30;36.00;;;;;;4950146;28;21383;-44
2022/07/11 10:34:35;;;;;;;1.60;1.50;;;30.30;36.20;;;;;;4950249;28;20449;-44
2022/07/11 10:37:04;;;;;;;1.60;1.50;;;30.50;35.80;;;;;;4946311;28;20467;-44
2022/07/11 10:39:32;;;;;;;1.30;1.20;;;30.60;35.40;;;;;;4954750;28;20443;-43
2022/07/11 10:41:59;;;;;;;2.07;1.60;;;30.70;35.30;;;;;;4951701;28;20458;-44
2022/07/11 10:44:27;;;;;;;1.50;1.30;;;30.80;35.30;;;;;;4950827;28;20562;-45
2022/07/11 10:46:53;;;;;;;3.20;1.60;;;30.80;35.10;;;;;;4954702;28;20990;-45
2022/07/11 10:49:43;;;;;;;2.20;2.00;;;30.80;35.40;;;;;;4948829;28;20525;-44
2022/07/11 10:52:09;;;;;;;1.57;1.47;;;30.90;35.50;;;;;;4956852;28;20473;-45
2022/07/11 10:54:55;;;;;;;1.67;1.57;;;30.90;35.30;;;;;;4957013;28;20492;-43
2022/07/11 10:57:54;;;;;;;2.07;1.80;;;31.00;34.70;;;;;;4951359;28;20834;-43
2022/07/11 11:00:21;;;;;;;1.73;1.63;;;31.00;34.10;;;;;;4954826;28;20521;-43
2022/07/11 11:03:06;;;;;;;2.73;1.90;;;31.00;34.60;;;;;;4953509;28;20555;-43
2022/07/11 11:05:52;;;;;;;1.90;1.10;;;31.10;35.00;;;;;;4961570;28;20485;-42
2022/07/11 11:11:23;;;;;;;2.33;1.43;;;31.10;35.10;;;;;;4951642;28;20507;-43
2022/07/11 11:14:26;;;;;;;1.43;1.33;;;31.20;35.10;;;;;;4952199;28;20443;-42
2022/07/11 11:16:52;;;;;;;1.20;1.20;;;30.80;34.20;;;;;;4945331;28;20463;-43
2022/07/11 11:19:48;;;;;;;2.13;1.60;;;30.80;34.80;;;;;;4956764;28;20450;-43
2022/07/11 11:22:15;;;;;;;1.50;1.40;;;30.80;34.20;;;;;;4942023;28;20473;-43
2022/07/11 11:24:45;;;;;;;3.00;1.40;;;30.90;34.50;;;;;;4959112;28;20438;-42
2022/07/11 11:27:24;;;;;;;1.80;1.70;;;31.10;34.80;;;;;;4955873;28;20495;-44
2022/07/11 11:29:55;;;;;;;2.70;1.30;;;31.20;34.60;;;;;;4955848;28;20438;-42
2022/07/11 11:32:22;;;;;;;1.50;1.40;;;31.20;34.80;;;;;;4951716;28;20473;-43
2022/07/11 11:34:49;;;;;;;1.50;1.37;;;31.30;35.10;;;;;;4953820;28;21321;-43
2022/07/11 11:37:17;;;;;;;1.60;1.50;;;31.50;35.20;;;;;;4951084;28;20499;-42
2022/07/11 11:39:43;;;;;;;1.30;1.20;;;31.60;34.70;;;;;;4952624;28;20448;-42
2022/07/11 11:42:12;;;;;;;1.53;1.43;;;31.70;34.50;;;;;;4952889;28;20510;-43
2022/07/11 11:44:57;;;;;;;1.50;1.40;;;31.70;34.80;;;;;;4953130;28;20968;-43
2022/07/11 11:47:23;;;;;;;1.70;1.60;;;31.80;34.30;;;;;;4952782;28;20537;-42
2022/07/11 11:49:49;;;;;;;2.03;1.80;;;31.90;34.40;;;;;;4952457;28;20443;-44
2022/07/11 11:52:16;;;;;;;1.87;1.30;;;32.00;34.60;;;;;;4951509;28;20471;-42
2022/07/11 11:54:42;;;;;;;3.50;1.47;;;32.00;33.10;;;;;;4955191;28;20198;-43
2022/07/11 11:57:10;;;;;;;3.10;1.60;;;31.70;33.30;;;;;;4954303;28;20833;-46
2022/07/11 11:59:37;;;;;;;3.33;1.63;;;31.90;34.20;;;;;;4950533;28;20570;-44
2022/07/11 12:02:03;;;;;;;4.40;1.80;;;31.90;34.10;;;;;;4950605;28;21238;-44
2022/07/11 12:04:33;;;;;;;1.93;1.80;;;32.00;33.50;;;;;;4950881;28;20475;-44
2022/07/11 12:07:01;;;;;;;1.77;1.60;;;32.00;33.20;;;;;;4950425;28;20192;-43
2022/07/11 12:14:57;;;;;;;1.57;1.40;;;32.00;33.20;;;;;;4934717;29;20465;-44
2022/07/11 12:17:27;;;;;;;1.83;1.70;;;32.10;32.60;;;;;;4937587;28;20446;-44
2022/07/11 12:19:53;;;;;;;1.90;1.80;;;32.10;32.80;;;;;;4952457;28;20204;-46
2022/07/11 12:22:19;;;;;;;2.17;2.00;;;32.10;32.50;;;;;;4952446;28;20455;-44
2022/07/11 12:24:49;;;;;;;1.63;1.53;;;32.10;33.00;;;;;;4953587;29;20446;-46
2022/07/11 12:27:18;;;;;;;2.50;1.67;;;32.10;33.20;;;;;;4951264;28;20498;-45
2022/07/11 12:29:49;;;;;;;1.90;1.80;;;32.10;33.10;;;;;;4952349;28;20597;-42
2022/07/11 12:32:15;;;;;;;1.57;1.47;;;32.20;33.20;;;;;;4946416;28;20482;-47
2022/07/11 12:34:42;;;;;;;1.87;1.77;;;32.20;33.70;;;;;;4946110;28;21026;-43
2022/07/11 12:37:13;;;;;;;2.20;2.00;;;32.20;33.40;;;;;;4951819;28;20243;-44
2022/07/11 12:39:51;;;;;;;1.93;1.83;;;32.20;32.90;;;;;;4954982;28;20533;-44
2022/07/11 12:42:34;;;;;;;1.70;1.60;;;32.30;33.20;;;;;;4946932;28;20866;-43
2022/07/11 12:45:08;;;;;;;2.10;1.90;;;32.30;33.60;;;;;;4950441;28;20500;-43
2022/07/11 12:47:34;;;;;;;1.93;1.83;;;32.30;33.90;;;;;;4950723;28;20485;-45
2022/07/11 12:50:17;;;;;;;2.10;2.00;;;32.30;33.70;;;;;;4953814;28;20488;-43
2022/07/11 12:52:46;;;;;;;1.90;1.80;;;32.30;32.80;;;;;;4952950;28;20196;-44
2022/07/11 12:55:23;;;;;;;1.97;1.87;;;32.30;33.10;;;;;;4951308;28;20990;-45
2022/07/11 12:58:08;;;;;;;2.13;1.83;;;32.40;33.50;;;;;;4948917;28;20487;-44
2022/07/11 13:00:39;;;;;;;2.40;2.20;;;32.40;33.50;;;;;;4934338;28;20447;-44
2022/07/11 13:03:06;;;;;;;2.90;2.03;;;32.40;33.50;;;;;;4950476;28;20455;-44
2022/07/11 13:05:51;;;;;;;2.57;1.93;;;32.30;33.90;;;;;;4950242;28;20819;-45
2022/07/11 13:08:47;;;;;;;2.80;2.23;;;32.40;33.90;;;;;;4950766;28;20466;-44